Time;durP1;ratioP1;P1;durP2;ratioP2;P2;SDS_P1;SDS_P2;PMS_P1;PMS_P2;Temp;Humidity;BMP_temperature;BMP_pressure;BME280_temperature;BME280_humidity;BME280_pressure;Samples;Min_cycle;Max_cycle;Signal;HPM_P1;HPM_P2
2023/04/17 00:00:42;;;;;;;4.67;4.27;;;;;;;;;;5090622;28;20932;-72
2023/04/17 00:03:10;;;;;;;5.70;4.27;;;;;;;;;;5090991;28;20939;-67
2023/04/17 00:05:37;;;;;;;5.43;3.73;;;;;;;;;;5090888;28;20506;-67
2023/04/17 00:08:04;;;;;;;5.67;3.77;;;;;;;;;;5090087;28;20812;-67
2023/04/17 00:10:32;;;;;;;5.37;4.73;;;;;;;;;;5089696;28;20449;-67
2023/04/17 00:13:00;;;;;;;10.10;5.63;;;;;;;;;;5090331;28;20457;-69
2023/04/17 00:15:27;;;;;;;6.40;4.50;;;;;;;;;;5091074;28;20447;-67
2023/04/17 00:17:54;;;;;;;5.83;3.60;;;;;;;;;;5089846;28;20536;-68
2023/04/17 00:20:22;;;;;;;6.50;4.00;;;;;;;;;;5090269;28;20503;-67
2023/04/17 00:22:49;;;;;;;5.90;4.10;;;;;;;;;;5090415;28;20465;-67
2023/04/17 00:25:16;;;;;;;7.40;3.93;;;;;;;;;;5090411;28;20987;-67
2023/04/17 00:27:43;;;;;;;4.33;2.93;;;;;;;;;;5090145;28;20440;-67
2023/04/17 00:30:12;;;;;;;5.97;3.60;;;;;;;;;;5090706;28;20452;-69
2023/04/17 00:32:39;;;;;;;6.00;3.80;;;;;;;;;;5090962;28;20527;-67
2023/04/17 00:35:06;;;;;;;6.57;5.20;;;;;;;;;;5083784;28;20454;-67
2023/04/17 00:37:34;;;;;;;5.27;4.77;;;;;;;;;;5084505;28;20455;-67
2023/04/17 00:40:01;;;;;;;7.83;3.60;;;;;;;;;;5089601;28;21056;-67
2023/04/17 00:42:28;;;;;;;4.60;3.60;;;;;;;;;;5090651;28;20812;-67
2023/04/17 00:44:56;;;;;;;6.53;4.17;;;;;;;;;;5090364;28;20456;-67
2023/04/17 00:47:25;;;;;;;5.80;4.53;;;;;;;;;;5090207;28;20880;-67
2023/04/17 00:49:52;;;;;;;9.30;4.30;;;;;;;;;;5090038;28;20451;-67
2023/04/17 00:52:27;;;;;;;4.60;3.40;;;;;;;;;;5090341;28;20459;-67
2023/04/17 00:54:54;;;;;;;4.60;3.30;;;;;;;;;;5089997;28;20804;-67
2023/04/17 00:57:22;;;;;;;4.10;3.33;;;;;;;;;;5090330;28;20441;-67
2023/04/17 00:59:49;;;;;;;3.97;3.37;;;;;;;;;;5089995;28;20602;-67
2023/04/17 01:02:16;;;;;;;8.57;5.77;;;;;;;;;;5090202;28;20440;-67
2023/04/17 01:04:45;;;;;;;8.70;5.67;;;;;;;;;;5090010;28;20510;-67
2023/04/17 01:07:12;;;;;;;6.97;3.90;;;;;;;;;;5089712;28;20444;-67
2023/04/17 01:09:39;;;;;;;3.90;3.17;;;;;;;;;;5094130;28;20456;-67
2023/04/17 01:12:16;;;;;;;5.87;4.23;;;;;;;;;;5093775;28;20522;-67
2023/04/17 01:14:44;;;;;;;4.83;3.80;;;;;;;;;;5093660;28;20444;-67
2023/04/17 01:17:13;;;;;;;8.70;4.50;;;;;;;;;;5093545;28;20445;-69
2023/04/17 01:19:40;;;;;;;3.57;2.80;;;;;;;;;;5093715;28;20511;-67
2023/04/17 01:22:09;;;;;;;5.80;3.50;;;;;;;;;;5093719;28;20468;-67
2023/04/17 01:24:37;;;;;;;6.33;4.63;;;;;;;;;;5093695;28;20959;-68
2023/04/17 01:27:05;;;;;;;4.27;3.27;;;;;;;;;;5080271;28;20452;-67
2023/04/17 01:29:34;;;;;;;4.97;3.77;;;;;;;;;;5093935;28;20916;-67
2023/04/17 01:32:01;;;;;;;5.50;4.07;;;;;;;;;;5093220;28;20452;-67
2023/04/17 01:34:28;;;;;;;6.10;4.70;;;;;;;;;;5093307;28;20958;-67
2023/04/17 01:36:55;;;;;;;7.90;4.00;;;;;;;;;;5092633;28;20810;-67
2023/04/17 01:39:22;;;;;;;5.33;4.13;;;;;;;;;;5093404;28;20480;-67
2023/04/17 01:41:51;;;;;;;7.07;4.47;;;;;;;;;;5092374;28;20449;-67
2023/04/17 01:44:18;;;;;;;9.87;4.27;;;;;;;;;;5093465;28;20445;-67
2023/04/17 01:46:45;;;;;;;6.30;4.63;;;;;;;;;;5092199;28;20453;-67
2023/04/17 01:49:13;;;;;;;3.40;2.93;;;;;;;;;;5093356;28;20557;-68
2023/04/17 01:51:40;;;;;;;5.43;3.93;;;;;;;;;;5093062;28;20924;-67
2023/04/17 01:54:07;;;;;;;4.90;3.40;;;;;;;;;;5093244;28;20453;-67
2023/04/17 01:56:34;;;;;;;5.00;3.20;;;;;;;;;;5092472;28;20452;-68
2023/04/17 01:59:03;;;;;;;5.57;4.33;;;;;;;;;;5092427;28;20836;-67
2023/04/17 02:01:30;;;;;;;4.60;3.57;;;;;;;;;;5093114;28;20447;-67
2023/04/17 02:03:57;;;;;;;9.20;3.73;;;;;;;;;;5092208;28;20509;-68
2023/04/17 02:06:25;;;;;;;7.07;4.60;;;;;;;;;;5082795;28;20919;-67
2023/04/17 02:08:52;;;;;;;5.77;4.10;;;;;;;;;;5091221;28;20449;-68
2023/04/17 02:11:20;;;;;;;6.33;4.00;;;;;;;;;;5092909;28;20448;-67
2023/04/17 02:13:47;;;;;;;6.53;4.03;;;;;;;;;;5092211;28;20451;-67
2023/04/17 02:16:15;;;;;;;4.13;3.00;;;;;;;;;;5092902;28;20453;-67
2023/04/17 02:18:42;;;;;;;6.23;4.80;;;;;;;;;;5091170;28;20437;-68
2023/04/17 02:21:09;;;;;;;4.27;3.67;;;;;;;;;;5092131;28;20472;-67
2023/04/17 02:23:36;;;;;;;6.37;3.87;;;;;;;;;;5092817;28;20449;-68
2023/04/17 02:26:04;;;;;;;5.30;4.03;;;;;;;;;;5091994;28;20437;-68
2023/04/17 02:28:31;;;;;;;7.53;6.20;;;;;;;;;;5092090;28;20456;-68
2023/04/17 02:30:58;;;;;;;4.40;3.27;;;;;;;;;;5092143;28;20471;-67
2023/04/17 02:33:26;;;;;;;4.20;3.50;;;;;;;;;;5092355;28;20449;-67
2023/04/17 02:35:54;;;;;;;6.90;3.20;;;;;;;;;;5092241;28;20531;-67
2023/04/17 02:38:21;;;;;;;5.07;3.43;;;;;;;;;;5091823;28;20537;-67
2023/04/17 02:40:48;;;;;;;5.40;3.73;;;;;;;;;;5091683;28;20480;-67
2023/04/17 02:43:16;;;;;;;7.27;5.20;;;;;;;;;;5092015;28;20452;-67
2023/04/17 02:45:43;;;;;;;9.77;5.23;;;;;;;;;;5091193;28;20940;-68
2023/04/17 02:48:10;;;;;;;5.40;4.10;;;;;;;;;;5091665;28;20451;-67
2023/04/17 02:50:38;;;;;;;6.20;5.00;;;;;;;;;;5091913;28;20460;-67
2023/04/17 02:53:05;;;;;;;6.13;3.33;;;;;;;;;;5091824;28;20940;-67
2023/04/17 02:55:33;;;;;;;6.00;4.50;;;;;;;;;;5091772;28;20876;-67
2023/04/17 02:58:00;;;;;;;6.47;5.10;;;;;;;;;;5090934;28;20440;-68
2023/04/17 03:00:27;;;;;;;4.57;3.17;;;;;;;;;;5091793;28;20833;-67
2023/04/17 03:02:54;;;;;;;6.47;4.33;;;;;;;;;;5091550;28;20444;-67
2023/04/17 03:05:23;;;;;;;9.30;5.20;;;;;;;;;;5091856;28;20452;-67
2023/04/17 03:07:51;;;;;;;10.30;3.90;;;;;;;;;;5090225;28;20478;-67
2023/04/17 03:10:18;;;;;;;6.77;4.47;;;;;;;;;;5091348;28;20451;-67
2023/04/17 03:12:45;;;;;;;7.03;4.00;;;;;;;;;;5091328;28;20448;-68
2023/04/17 03:15:13;;;;;;;5.40;4.30;;;;;;;;;;5091296;28;20456;-67
2023/04/17 03:17:40;;;;;;;7.20;3.50;;;;;;;;;;5091710;28;20448;-68
2023/04/17 03:20:08;;;;;;;7.17;5.40;;;;;;;;;;5091517;28;20496;-68
2023/04/17 03:22:35;;;;;;;6.67;3.70;;;;;;;;;;5091989;28;20457;-68
2023/04/17 03:25:04;;;;;;;5.37;3.93;;;;;;;;;;5090877;28;20464;-67
2023/04/17 03:27:31;;;;;;;6.03;2.90;;;;;;;;;;5090816;28;20456;-67
2023/04/17 03:29:58;;;;;;;8.80;4.70;;;;;;;;;;5090897;28;20440;-67
2023/04/17 03:32:25;;;;;;;4.50;3.37;;;;;;;;;;5090812;28;20448;-68
2023/04/17 03:34:53;;;;;;;4.57;3.77;;;;;;;;;;5090934;28;20466;-67
2023/04/17 03:37:20;;;;;;;6.27;4.30;;;;;;;;;;5090874;28;20453;-69
2023/04/17 03:39:47;;;;;;;6.87;4.43;;;;;;;;;;5090444;28;20476;-66
2023/04/17 03:42:15;;;;;;;5.10;3.90;;;;;;;;;;5091007;28;20452;-67
2023/04/17 03:44:42;;;;;;;6.73;3.63;;;;;;;;;;5090467;28;20447;-67
2023/04/17 03:47:10;;;;;;;6.77;4.17;;;;;;;;;;5090800;28;20452;-67
2023/04/17 03:49:37;;;;;;;10.07;7.80;;;;;;;;;;5077582;28;20505;-67
2023/04/17 03:52:04;;;;;;;5.53;3.57;;;;;;;;;;5090128;28;20459;-68
2023/04/17 03:54:34;;;;;;;6.50;3.60;;;;;;;;;;5090371;28;20453;-67
2023/04/17 03:57:01;;;;;;;6.93;3.90;;;;;;;;;;5089965;28;20448;-67
2023/04/17 03:59:30;;;;;;;7.60;5.17;;;;;;;;;;5091208;28;20458;-67
2023/04/17 04:01:57;;;;;;;5.80;3.93;;;;;;;;;;5089814;28;20966;-69
2023/04/17 04:04:24;;;;;;;7.30;4.07;;;;;;;;;;5090960;28;20453;-67
2023/04/17 04:06:53;;;;;;;6.23;4.30;;;;;;;;;;5084765;28;21035;-67
2023/04/17 04:09:21;;;;;;;7.10;3.80;;;;;;;;;;5090939;28;20544;-67
2023/04/17 04:11:48;;;;;;;11.00;4.43;;;;;;;;;;5089720;28;21002;-67
2023/04/17 04:14:15;;;;;;;6.60;4.57;;;;;;;;;;5091069;28;20450;-68
2023/04/17 04:16:43;;;;;;;5.23;3.30;;;;;;;;;;5085645;28;20956;-70
2023/04/17 04:19:11;;;;;;;8.23;4.83;;;;;;;;;;5090650;28;20452;-69
2023/04/17 04:21:38;;;;;;;4.50;2.70;;;;;;;;;;5086993;28;20496;-67
2023/04/17 04:24:05;;;;;;;6.57;4.20;;;;;;;;;;5090186;28;20453;-67
2023/04/17 04:26:32;;;;;;;5.13;3.27;;;;;;;;;;5090044;28;20447;-67
2023/04/17 04:29:00;;;;;;;3.70;3.37;;;;;;;;;;5090144;28;20457;-68
2023/04/17 04:31:28;;;;;;;6.53;3.70;;;;;;;;;;5087850;28;20505;-67
2023/04/17 04:33:57;;;;;;;7.20;5.67;;;;;;;;;;5090036;28;20521;-67
2023/04/17 04:36:28;;;;;;;8.40;5.10;;;;;;;;;;5090020;28;20931;-67
2023/04/17 04:38:58;;;;;;;5.77;4.60;;;;;;;;;;5089714;28;20453;-67
2023/04/17 04:41:25;;;;;;;8.60;3.67;;;;;;;;;;5089972;28;20488;-67
2023/04/17 04:43:53;;;;;;;7.33;5.17;;;;;;;;;;5092255;28;20822;-67
2023/04/17 04:46:20;;;;;;;6.47;4.17;;;;;;;;;;5093683;28;20452;-67
2023/04/17 04:48:47;;;;;;;3.67;3.30;;;;;;;;;;5093669;28;20455;-67
2023/04/17 04:51:17;;;;;;;5.60;3.57;;;;;;;;;;5094028;28;20452;-67
2023/04/17 04:53:44;;;;;;;8.07;4.87;;;;;;;;;;5093967;28;20899;-67
2023/04/17 04:56:11;;;;;;;6.27;4.70;;;;;;;;;;5094228;28;20437;-67
2023/04/17 04:58:39;;;;;;;6.57;3.80;;;;;;;;;;5094130;28;20448;-67
2023/04/17 05:01:06;;;;;;;4.07;3.10;;;;;;;;;;5094012;28;20488;-67
2023/04/17 05:03:33;;;;;;;5.60;3.33;;;;;;;;;;5093441;28;20810;-67
2023/04/17 05:06:00;;;;;;;7.03;4.67;;;;;;;;;;5093403;28;20722;-67
2023/04/17 05:08:29;;;;;;;4.47;4.00;;;;;;;;;;5093547;28;20459;-66
2023/04/17 05:10:56;;;;;;;9.13;4.73;;;;;;;;;;5093303;28;20444;-67
2023/04/17 05:13:23;;;;;;;6.87;4.63;;;;;;;;;;5095078;28;20802;-66
2023/04/17 05:15:50;;;;;;;5.33;4.37;;;;;;;;;;5093624;28;20456;-65
2023/04/17 05:18:17;;;;;;;7.37;5.00;;;;;;;;;;5093258;28;20444;-66
2023/04/17 05:20:45;;;;;;;7.67;5.70;;;;;;;;;;5093498;28;20983;-67
2023/04/17 05:23:12;;;;;;;4.67;3.63;;;;;;;;;;5093951;28;20441;-67
2023/04/17 05:25:41;;;;;;;6.07;4.37;;;;;;;;;;5094032;28;20859;-66
2023/04/17 05:28:08;;;;;;;10.50;4.20;;;;;;;;;;5093560;28;20453;-66
2023/04/17 05:30:35;;;;;;;5.93;4.30;;;;;;;;;;5093849;28;20463;-66
2023/04/17 05:33:02;;;;;;;4.53;3.67;;;;;;;;;;5092898;28;20440;-66
2023/04/17 05:35:30;;;;;;;6.23;5.30;;;;;;;;;;5093463;28;20449;-66
2023/04/17 05:37:57;;;;;;;5.90;3.77;;;;;;;;;;5092791;28;20444;-67
2023/04/17 05:40:24;;;;;;;5.73;2.70;;;;;;;;;;5093658;28;21065;-66
2023/04/17 05:42:53;;;;;;;5.20;3.63;;;;;;;;;;5092888;28;20447;-66
2023/04/17 05:45:20;;;;;;;10.13;4.20;;;;;;;;;;5093336;28;20448;-66
2023/04/17 05:47:47;;;;;;;8.30;4.30;;;;;;;;;;5092233;28;20943;-66
2023/04/17 05:50:14;;;;;;;4.40;3.27;;;;;;;;;;5093782;28;20456;-66
2023/04/17 05:52:41;;;;;;;6.80;3.53;;;;;;;;;;5091259;28;20960;-67
2023/04/17 05:55:09;;;;;;;8.30;4.37;;;;;;;;;;5085275;28;20445;-66
2023/04/17 05:57:36;;;;;;;7.57;4.10;;;;;;;;;;5093200;28;20527;-66
2023/04/17 06:00:11;;;;;;;5.73;4.57;;;;;;;;;;5092632;28;20456;-66
2023/04/17 06:02:39;;;;;;;7.87;3.83;;;;;;;;;;5079667;28;20446;-67
2023/04/17 06:05:07;;;;;;;5.70;3.60;;;;;;;;;;5093331;28;20452;-67
2023/04/17 06:07:34;;;;;;;5.17;3.80;;;;;;;;;;5093120;28;20441;-66
2023/04/17 06:10:01;;;;;;;5.13;4.53;;;;;;;;;;5092432;28;20449;-66
2023/04/17 06:12:29;;;;;;;4.50;3.40;;;;;;;;;;5092277;28;20506;-66
2023/04/17 06:14:56;;;;;;;5.37;3.97;;;;;;;;;;5092367;28;20825;-66
2023/04/17 06:17:25;;;;;;;7.83;5.67;;;;;;;;;;5092979;28;20452;-66
2023/04/17 06:19:52;;;;;;;6.93;4.40;;;;;;;;;;5091788;28;20459;-66
2023/04/17 06:22:19;;;;;;;4.97;3.90;;;;;;;;;;5092217;28;20476;-66
2023/04/17 06:24:46;;;;;;;4.30;3.07;;;;;;;;;;5092193;28;20444;-66
2023/04/17 06:27:13;;;;;;;5.63;3.93;;;;;;;;;;5092727;28;20511;-67
2023/04/17 06:29:40;;;;;;;6.97;4.23;;;;;;;;;;5092406;28;20928;-68
2023/04/17 06:32:07;;;;;;;5.00;3.83;;;;;;;;;;5092050;28;20459;-66
2023/04/17 06:34:36;;;;;;;5.17;3.73;;;;;;;;;;5092544;28;20860;-67
2023/04/17 06:37:03;;;;;;;10.73;4.40;;;;;;;;;;5092013;28;20445;-66
2023/04/17 06:39:30;;;;;;;4.90;3.80;;;;;;;;;;5092448;28;20452;-66
2023/04/17 06:41:58;;;;;;;5.90;3.97;;;;;;;;;;5091178;28;20487;-66
2023/04/17 06:44:25;;;;;;;6.30;3.63;;;;;;;;;;5092298;28;20803;-66
2023/04/17 06:46:53;;;;;;;11.93;5.67;;;;;;;;;;5091785;28;20471;-66
2023/04/17 06:49:20;;;;;;;9.63;4.80;;;;;;;;;;5092238;28;20452;-66
2023/04/17 06:51:48;;;;;;;4.70;2.60;;;;;;;;;;5091249;28;20448;-66
2023/04/17 06:54:16;;;;;;;4.63;3.53;;;;;;;;;;5092068;28;20907;-67
2023/04/17 06:56:43;;;;;;;7.20;4.27;;;;;;;;;;5091555;28;20449;-67
2023/04/17 06:59:10;;;;;;;5.33;2.97;;;;;;;;;;5092250;28;20456;-66
2023/04/17 07:01:39;;;;;;;7.67;4.13;;;;;;;;;;5091836;28;20488;-67
2023/04/17 07:04:07;;;;;;;6.70;4.23;;;;;;;;;;5092223;28;20463;-67
2023/04/17 07:06:35;;;;;;;4.53;2.80;;;;;;;;;;5091606;28;20447;-67
2023/04/17 07:09:03;;;;;;;4.63;3.93;;;;;;;;;;5091148;28;20449;-67
2023/04/17 07:11:31;;;;;;;7.70;3.20;;;;;;;;;;5091394;28;20454;-67
2023/04/17 07:13:58;;;;;;;4.17;2.97;;;;;;;;;;5091035;28;20448;-67
2023/04/17 07:16:25;;;;;;;5.70;3.57;;;;;;;;;;5091801;28;20450;-67
2023/04/17 07:18:52;;;;;;;6.10;5.00;;;;;;;;;;5090807;28;20456;-66
2023/04/17 07:21:19;;;;;;;4.63;4.13;;;;;;;;;;5091158;28;20979;-68
2023/04/17 07:23:47;;;;;;;5.43;4.67;;;;;;;;;;5091087;28;20445;-67
2023/04/17 07:26:15;;;;;;;4.43;3.17;;;;;;;;;;5091456;28;20444;-67
2023/04/17 07:28:42;;;;;;;4.23;2.30;;;;;;;;;;5091101;28;20447;-67
2023/04/17 07:31:09;;;;;;;4.80;2.30;;;;;;;;;;5091235;28;20453;-66
2023/04/17 07:33:37;;;;;;;4.90;3.00;;;;;;;;;;5091429;28;20444;-67
2023/04/17 07:36:04;;;;;;;4.57;3.37;;;;;;;;;;5090969;28;20826;-67
2023/04/17 07:38:31;;;;;;;3.47;2.33;;;;;;;;;;5091575;28;20452;-67
2023/04/17 07:40:59;;;;;;;3.57;2.93;;;;;;;;;;5090411;28;20480;-66
2023/04/17 07:43:28;;;;;;;5.43;3.07;;;;;;;;;;5091464;28;20488;-66
2023/04/17 07:45:55;;;;;;;3.27;2.50;;;;;;;;;;5090454;28;20605;-66
2023/04/17 07:48:22;;;;;;;5.13;4.10;;;;;;;;;;5091360;28;20437;-67
2023/04/17 07:50:50;;;;;;;6.30;3.90;;;;;;;;;;5090285;28;20456;-68
2023/04/17 07:53:17;;;;;;;4.37;3.53;;;;;;;;;;5091279;28;20461;-67
2023/04/17 07:55:44;;;;;;;5.10;3.80;;;;;;;;;;5090691;28;20453;-67
2023/04/17 07:58:11;;;;;;;3.13;2.83;;;;;;;;;;5091103;28;20448;-68
2023/04/17 08:00:40;;;;;;;4.97;2.47;;;;;;;;;;5090819;28;20480;-67
2023/04/17 08:03:07;;;;;;;3.40;2.50;;;;;;;;;;5090290;28;20508;-67
2023/04/17 08:05:34;;;;;;;5.10;3.30;;;;;;;;;;5090721;28;20448;-67
2023/04/17 08:08:01;;;;;;;6.43;3.00;;;;;;;;;;5090092;28;20487;-67
2023/04/17 08:10:29;;;;;;;5.70;3.20;;;;;;;;;;5090321;28;20950;-67
2023/04/17 08:12:56;;;;;;;3.50;2.13;;;;;;;;;;5090256;28;20952;-66
2023/04/17 08:15:24;;;;;;;5.83;3.17;;;;;;;;;;5090901;28;20444;-66
2023/04/17 08:17:52;;;;;;;3.70;2.33;;;;;;;;;;5091190;28;20444;-66
2023/04/17 08:20:19;;;;;;;4.43;3.20;;;;;;;;;;5094429;28;21006;-66
2023/04/17 08:22:46;;;;;;;3.47;2.33;;;;;;;;;;5094630;28;20826;-66
2023/04/17 08:25:14;;;;;;;3.30;2.47;;;;;;;;;;5094798;28;20815;-66
2023/04/17 08:27:42;;;;;;;5.63;2.60;;;;;;;;;;5094397;28;20444;-67
2023/04/17 08:30:10;;;;;;;4.90;2.97;;;;;;;;;;5094896;28;20939;-67
2023/04/17 08:32:38;;;;;;;4.50;2.03;;;;;;;;;;5094651;28;20939;-66
2023/04/17 08:35:07;;;;;;;6.27;3.13;;;;;;;;;;5094711;28;20448;-67
2023/04/17 08:37:34;;;;;;;7.03;3.00;;;;;;;;;;5094907;28;20455;-66
2023/04/17 08:40:02;;;;;;;3.43;3.07;;;;;;;;;;5094411;28;20951;-67
2023/04/17 08:42:30;;;;;;;3.87;3.10;;;;;;;;;;5094131;28;20486;-67
2023/04/17 08:44:59;;;;;;;3.10;2.07;;;;;;;;;;5094018;28;20924;-66
2023/04/17 08:47:27;;;;;;;7.10;4.40;;;;;;;;;;5094761;28;20515;-66
2023/04/17 08:49:54;;;;;;;5.00;2.77;;;;;;;;;;5094138;28;20505;-66
2023/04/17 08:52:23;;;;;;;3.60;2.17;;;;;;;;;;5093908;28;20444;-66
2023/04/17 08:54:50;;;;;;;2.60;1.83;;;;;;;;;;5094122;28;20452;-66
2023/04/17 08:57:17;;;;;;;5.00;2.70;;;;;;;;;;5094382;28;20463;-66
2023/04/17 08:59:45;;;;;;;5.90;2.70;;;;;;;;;;5093796;28;20932;-66
2023/04/17 09:02:12;;;;;;;3.10;2.70;;;;;;;;;;5093940;28;20476;-66
2023/04/17 09:04:40;;;;;;;3.30;2.30;;;;;;;;;;5094547;28;20454;-66
2023/04/17 09:07:08;;;;;;;4.97;2.50;;;;;;;;;;5094510;28;20497;-66
2023/04/17 09:09:52;;;;;;;2.60;2.17;;;;;;;;;;5094730;28;20528;-66
2023/04/17 09:12:20;;;;;;;4.60;2.53;;;;;;;;;;5093744;28;20756;-66
2023/04/17 09:14:47;;;;;;;3.67;2.33;;;;;;;;;;5093606;28;20448;-67
2023/04/17 09:17:16;;;;;;;3.23;2.00;;;;;;;;;;5094250;28;20448;-66
2023/04/17 09:19:58;;;;;;;3.17;2.27;;;;;;;;;;5093399;28;20489;-66
2023/04/17 09:22:25;;;;;;;3.30;1.70;;;;;;;;;;5093879;28;20767;-66
2023/04/17 09:24:53;;;;;;;3.20;2.17;;;;;;;;;;5093473;28;20452;-66
2023/04/17 09:27:21;;;;;;;2.43;2.20;;;;;;;;;;5093939;28;20517;-66
2023/04/17 09:29:58;;;;;;;3.57;2.47;;;;;;;;;;5092828;28;20521;-66
2023/04/17 09:32:26;;;;;;;2.80;1.97;;;;;;;;;;5093693;28;20543;-66
2023/04/17 09:34:53;;;;;;;1.93;1.70;;;;;;;;;;5093157;28;20501;-66
2023/04/17 09:37:20;;;;;;;1.60;1.50;;;;;;;;;;5093832;28;20798;-66
2023/04/17 09:40:05;;;;;;;3.97;2.67;;;;;;;;;;5093203;28;20528;-66
2023/04/17 09:42:32;;;;;;;1.70;1.27;;;;;;;;;;5093558;28;20526;-66
2023/04/17 09:45:18;;;;;;;5.23;2.13;;;;;;;;;;5092924;28;20455;-67
2023/04/17 09:47:46;;;;;;;5.03;2.27;;;;;;;;;;5092623;28;20440;-66
2023/04/17 09:50:14;;;;;;;1.53;1.30;;;;;;;;;;5093005;28;20471;-66
2023/04/17 09:52:42;;;;;;;3.60;2.60;;;;;;;;;;5092888;28;20525;-69
2023/04/17 09:55:11;;;;;;;3.10;2.17;;;;;;;;;;5093420;28;20452;-66
2023/04/17 09:57:39;;;;;;;6.43;2.30;;;;;;;;;;5093471;28;20455;-66
2023/04/17 10:00:12;;;;;;;3.13;2.17;;;;;;;;;;5093190;28;20453;-66
2023/04/17 10:02:40;;;;;;;3.20;2.70;;;;;;;;;;5080126;28;20476;-66
2023/04/17 10:05:08;;;;;;;2.70;2.30;;;;;;;;;;5093408;28;20836;-66
2023/04/17 10:07:35;;;;;;;4.33;1.90;;;;;;;;;;5092874;28;20448;-66
2023/04/17 10:10:07;;;;;;;1.43;1.33;;;;;;;;;;5092023;28;20444;-67
2023/04/17 10:12:36;;;;;;;2.23;1.70;;;;;;;;;;5093152;28;20440;-66
2023/04/17 10:15:04;;;;;;;2.50;1.87;;;;;;;;;;5092595;28;20449;-66
2023/04/17 10:17:33;;;;;;;4.17;2.13;;;;;;;;;;5093048;28;20448;-67
2023/04/17 10:20:16;;;;;;;3.73;2.13;;;;;;;;;;5092120;28;20475;-67
2023/04/17 10:22:43;;;;;;;2.37;1.67;;;;;;;;;;5091553;28;20582;-66
2023/04/17 10:25:21;;;;;;;2.87;2.40;;;;;;;;;;5092958;28;20502;-68
2023/04/17 10:27:50;;;;;;;1.20;1.10;;;;;;;;;;5092124;28;20527;-66
2023/04/17 10:30:20;;;;;;;3.20;2.03;;;;;;;;;;5092187;28;20931;-66
2023/04/17 10:33:07;;;;;;;4.23;2.23;;;;;;;;;;5091751;28;20449;-66
2023/04/17 10:35:35;;;;;;;4.10;2.03;;;;;;;;;;5092439;28;20448;-67
2023/04/17 10:38:04;;;;;;;3.03;2.00;;;;;;;;;;5091639;28;20449;-66
2023/04/17 10:40:32;;;;;;;2.87;1.50;;;;;;;;;;5091409;28;20440;-66
2023/04/17 10:43:04;;;;;;;2.60;1.93;;;;;;;;;;5091334;28;21008;-66
2023/04/17 10:45:50;;;;;;;3.93;2.30;;;;;;;;;;5092455;28;20455;-66
2023/04/17 10:48:21;;;;;;;1.80;1.70;;;;;;;;;;5088802;28;20449;-67
2023/04/17 10:50:48;;;;;;;7.47;2.70;;;;;;;;;;5091434;28;20456;-67
2023/04/17 10:53:30;;;;;;;2.10;1.10;;;;;;;;;;5092059;28;20449;-68
2023/04/17 10:55:57;;;;;;;4.00;1.83;;;;;;;;;;5090645;28;20456;-67
2023/04/17 10:58:26;;;;;;;2.37;1.63;;;;;;;;;;5092087;28;20452;-67
2023/04/17 11:00:53;;;;;;;1.43;1.13;;;;;;;;;;5091172;28;20451;-66
2023/04/17 11:03:22;;;;;;;2.33;1.60;;;;;;;;;;5091830;28;21010;-66
2023/04/17 11:05:50;;;;;;;1.40;1.00;;;;;;;;;;5091455;28;20451;-67
2023/04/17 11:08:17;;;;;;;1.63;1.53;;;;;;;;;;5091930;28;20502;-67
2023/04/17 11:10:45;;;;;;;1.63;1.03;;;;;;;;;;5077446;28;20452;-67
2023/04/17 11:13:12;;;;;;;1.80;1.00;;;;;;;;;;5091892;28;20449;-68
2023/04/17 11:15:41;;;;;;;2.10;1.80;;;;;;;;;;5092104;28;20453;-67
2023/04/17 11:18:08;;;;;;;3.00;1.37;;;;;;;;;;5091980;28;20453;-67
2023/04/17 11:20:36;;;;;;;2.23;1.10;;;;;;;;;;5091077;28;20985;-66
2023/04/17 11:23:04;;;;;;;2.13;1.43;;;;;;;;;;5091224;28;20534;-67
2023/04/17 11:25:33;;;;;;;2.23;2.03;;;;;;;;;;5091709;28;20535;-67
2023/04/17 11:28:01;;;;;;;1.70;1.53;;;;;;;;;;5090871;28;20444;-69
2023/04/17 11:30:28;;;;;;;2.87;1.50;;;;;;;;;;5091383;28;20452;-67
2023/04/17 11:32:57;;;;;;;2.17;1.80;;;;;;;;;;5091059;28;20823;-67
2023/04/17 11:35:28;;;;;;;1.93;1.23;;;;;;;;;;5091684;28;20451;-67
2023/04/17 11:38:05;;;;;;;2.73;1.60;;;;;;;;;;5090912;28;20521;-67
2023/04/17 11:40:32;;;;;;;1.57;1.07;;;;;;;;;;5090805;28;20472;-67
2023/04/17 11:43:03;;;;;;;2.73;1.90;;;;;;;;;;5090559;28;20480;-68
2023/04/17 11:45:31;;;;;;;2.13;1.57;;;;;;;;;;5091597;28;20890;-68
2023/04/17 11:48:01;;;;;;;2.37;1.50;;;;;;;;;;5090704;28;20449;-67
2023/04/17 11:50:29;;;;;;;3.13;1.87;;;;;;;;;;5090664;28;20493;-67
2023/04/17 11:52:57;;;;;;;1.77;1.67;;;;;;;;;;5090693;28;20539;-67
2023/04/17 11:55:29;;;;;;;3.87;2.43;;;;;;;;;;5091192;28;20444;-68
2023/04/17 11:57:57;;;;;;;2.90;2.03;;;;;;;;;;5090687;28;20443;-67
2023/04/17 12:00:27;;;;;;;2.90;1.60;;;;;;;;;;5090760;28;20445;-68
2023/04/17 12:02:55;;;;;;;3.17;1.53;;;;;;;;;;5090344;28;20525;-67
2023/04/17 12:05:25;;;;;;;2.53;1.60;;;;;;;;;;5091258;28;20448;-67
2023/04/17 12:08:03;;;;;;;1.60;1.50;;;;;;;;;;5090662;28;20444;-67
2023/04/17 12:10:40;;;;;;;2.30;1.90;;;;;;;;;;5090588;28;20463;-68
2023/04/17 12:13:07;;;;;;;1.33;1.03;;;;;;;;;;5091153;28;20460;-67
2023/04/17 12:15:35;;;;;;;3.33;2.43;;;;;;;;;;5090965;28;20459;-67
2023/04/17 12:18:04;;;;;;;1.90;1.63;;;;;;;;;;5090535;28;21000;-67
2023/04/17 12:20:34;;;;;;;1.30;1.10;;;;;;;;;;5090276;28;20481;-67
2023/04/17 12:23:01;;;;;;;2.30;1.43;;;;;;;;;;5090365;28;20489;-69
2023/04/17 12:25:28;;;;;;;1.57;1.47;;;;;;;;;;5090666;28;20457;-66
2023/04/17 12:27:57;;;;;;;1.60;1.50;;;;;;;;;;5089939;28;20448;-67
2023/04/17 12:30:25;;;;;;;2.67;1.90;;;;;;;;;;5090850;28;20785;-66
2023/04/17 12:32:52;;;;;;;3.70;2.17;;;;;;;;;;5090065;28;20448;-67
2023/04/17 12:35:19;;;;;;;3.90;2.10;;;;;;;;;;5090916;28;20789;-67
2023/04/17 12:37:50;;;;;;;2.73;1.97;;;;;;;;;;5090328;28;20471;-67
2023/04/17 12:40:17;;;;;;;3.17;1.23;;;;;;;;;;5090209;28;20442;-67
2023/04/17 12:42:45;;;;;;;3.03;1.63;;;;;;;;;;5089648;28;20483;-68
2023/04/17 12:45:13;;;;;;;1.73;1.13;;;;;;;;;;5090830;28;20456;-66
2023/04/17 12:47:41;;;;;;;2.77;2.33;;;;;;;;;;5090485;28;20449;-67
2023/04/17 12:50:09;;;;;;;2.73;1.67;;;;;;;;;;5090546;28;20460;-67
2023/04/17 12:52:36;;;;;;;1.80;1.67;;;;;;;;;;5090794;28;20452;-67
2023/04/17 12:55:06;;;;;;;6.90;2.23;;;;;;;;;;5090231;28;20451;-66
2023/04/17 12:57:34;;;;;;;3.20;1.80;;;;;;;;;;5090377;28;20506;-67
2023/04/17 13:00:01;;;;;;;2.47;2.27;;;;;;;;;;5089718;28;20813;-67
2023/04/17 13:02:28;;;;;;;2.60;1.90;;;;;;;;;;5090504;28;20492;-66
2023/04/17 13:04:55;;;;;;;2.53;1.77;;;;;;;;;;5092547;28;20456;-67
2023/04/17 13:07:22;;;;;;;1.70;1.47;;;;;;;;;;5093980;28;20955;-66
2023/04/17 13:09:50;;;;;;;2.43;2.23;;;;;;;;;;5093292;28;20786;-67
2023/04/17 13:12:18;;;;;;;1.77;1.40;;;;;;;;;;5080546;28;20461;-67
2023/04/17 13:14:45;;;;;;;3.13;2.17;;;;;;;;;;5093443;28;20966;-67
2023/04/17 13:17:14;;;;;;;2.23;1.57;;;;;;;;;;5094181;28;20448;-67
2023/04/17 13:19:41;;;;;;;3.00;1.80;;;;;;;;;;5093107;28;20452;-71
2023/04/17 13:22:08;;;;;;;2.63;2.10;;;;;;;;;;5094017;28;20470;-66
2023/04/17 13:24:35;;;;;;;1.70;1.57;;;;;;;;;;5093842;28;20494;-66
2023/04/17 13:27:03;;;;;;;2.80;1.67;;;;;;;;;;5093220;28;20547;-67
2023/04/17 13:29:31;;;;;;;5.77;2.37;;;;;;;;;;5093408;28;20453;-67
2023/04/17 13:31:58;;;;;;;3.33;1.37;;;;;;;;;;5093011;28;20445;-67
2023/04/17 13:34:25;;;;;;;1.57;1.27;;;;;;;;;;5093387;28;20456;-67
2023/04/17 13:36:52;;;;;;;2.23;1.60;;;;;;;;;;5093252;28;20445;-67
2023/04/17 13:39:20;;;;;;;1.73;1.63;;;;;;;;;;5093643;28;20449;-67
2023/04/17 13:41:47;;;;;;;2.23;1.80;;;;;;;;;;5092485;28;20456;-67
2023/04/17 13:44:15;;;;;;;2.27;1.30;;;;;;;;;;5093352;28;20486;-67
2023/04/17 13:46:43;;;;;;;1.80;1.50;;;;;;;;;;5093161;28;20444;-67
2023/04/17 13:49:10;;;;;;;2.10;1.53;;;;;;;;;;5093372;28;20978;-69
2023/04/17 13:51:38;;;;;;;2.50;1.37;;;;;;;;;;5089279;28;20461;-69
2023/04/17 13:54:05;;;;;;;1.57;1.47;;;;;;;;;;5093669;28;20479;-67
2023/04/17 13:56:32;;;;;;;2.90;2.67;;;;;;;;;;5092976;28;20447;-67
2023/04/17 13:59:00;;;;;;;2.50;1.90;;;;;;;;;;5091962;28;20449;-67
2023/04/17 14:01:27;;;;;;;1.43;1.23;;;;;;;;;;5092363;28;20452;-66
2023/04/17 14:03:59;;;;;;;3.20;1.90;;;;;;;;;;5092086;28;20488;-67
2023/04/17 14:06:26;;;;;;;2.70;1.80;;;;;;;;;;5092446;28;21213;-67
2023/04/17 14:08:54;;;;;;;2.87;1.87;;;;;;;;;;5092120;28;20775;-67
2023/04/17 14:11:21;;;;;;;2.27;1.53;;;;;;;;;;5092207;28;20460;-67
2023/04/17 14:13:48;;;;;;;2.10;1.77;;;;;;;;;;5091323;28;20445;-67
2023/04/17 14:16:17;;;;;;;2.37;1.60;;;;;;;;;;5092131;28;20444;-67
2023/04/17 14:18:46;;;;;;;2.40;1.70;;;;;;;;;;5090955;28;20467;-67
2023/04/17 14:21:15;;;;;;;2.40;1.70;;;;;;;;;;5091890;28;20476;-66
2023/04/17 14:23:42;;;;;;;1.57;1.30;;;;;;;;;;5092117;28;20488;-68
2023/04/17 14:26:09;;;;;;;2.13;1.23;;;;;;;;;;5091542;28;20806;-67
2023/04/17 14:28:36;;;;;;;1.73;1.60;;;;;;;;;;5091746;28;20440;-66
2023/04/17 14:31:03;;;;;;;5.40;1.90;;;;;;;;;;5091605;28;20808;-67
2023/04/17 14:33:30;;;;;;;2.80;1.57;;;;;;;;;;5085794;28;20464;-67
2023/04/17 14:35:58;;;;;;;3.37;2.00;;;;;;;;;;5083100;28;20951;-67
2023/04/17 14:38:26;;;;;;;3.30;1.50;;;;;;;;;;5090157;28;20460;-67
2023/04/17 14:40:54;;;;;;;1.33;1.23;;;;;;;;;;5089086;28;20796;-68
2023/04/17 14:43:21;;;;;;;3.33;1.70;;;;;;;;;;5089524;28;20476;-68
2023/04/17 14:45:50;;;;;;;2.97;1.13;;;;;;;;;;5089112;28;20817;-67
2023/04/17 14:48:17;;;;;;;2.13;1.57;;;;;;;;;;5089595;28;20535;-69